createdAt,value
2022-11-05T00:05:13.010Z,0
2022-11-05T00:10:31.794Z,0
2022-11-05T00:21:11.338Z,0
2022-11-05T00:26:29.256Z,0
2022-11-05T00:37:08.875Z,0
2022-11-05T00:43:43.048Z,0
2022-11-05T00:47:46.251Z,0
2022-11-05T00:53:05.591Z,0
2022-11-05T00:58:25.101Z,0
2022-11-05T01:03:53.905Z,0
2022-11-05T01:09:03.336Z,0
2022-11-05T01:19:43.044Z,0
2022-11-05T01:25:01.249Z,0
2022-11-05T01:30:21.114Z,0
2022-11-05T01:36:55.250Z,0
2022-11-05T01:41:09.908Z,0
2022-11-05T01:46:18.039Z,0
2022-11-05T01:51:37.350Z,0
2022-11-05T02:02:16.076Z,0
2022-11-05T02:07:35.156Z,0
2022-11-05T02:13:02.682Z,0
2022-11-05T02:18:14.700Z,0
2022-11-05T02:23:33.318Z,0
2022-11-05T02:28:53.396Z,0
2022-11-05T02:39:32.740Z,0
2022-11-05T02:44:51.366Z,0
2022-11-05T02:50:11.132Z,0
2022-11-05T02:55:31.254Z,0
2022-11-05T03:00:50.897Z,0
2022-11-05T03:06:09.524Z,0
2022-11-05T03:11:29.151Z,0
2022-11-05T03:16:48.733Z,0
2022-11-05T03:22:07.646Z,0
2022-11-05T03:27:26.214Z,0
2022-11-05T03:38:04.648Z,0
2022-11-05T03:43:23.898Z,0
2022-11-05T03:48:42.932Z,0
2022-11-05T03:54:02.115Z,0
2022-11-05T03:59:19.918Z,0
2022-11-05T04:04:39.542Z,0
2022-11-05T04:09:58.941Z,0
2022-11-05T04:20:37.383Z,0
2022-11-05T04:25:56.211Z,0
2022-11-05T04:31:15.670Z,0
2022-11-05T04:36:35.115Z,0
2022-11-05T04:41:54.983Z,0
2022-11-05T04:47:14.726Z,0
2022-11-05T05:03:12.077Z,0
2022-11-05T05:09:46.006Z,0
2022-11-05T05:13:50.069Z,0
2022-11-05T05:19:09.337Z,0
2022-11-05T05:24:29.333Z,0
2022-11-05T05:29:48.325Z,0
2022-11-05T05:35:06.488Z,0
2022-11-05T05:45:45.745Z,0
2022-11-05T05:51:04.709Z,0
2022-11-05T06:01:42.835Z,0
2022-11-05T06:07:02.646Z,0.0018
2022-11-05T06:12:21.874Z,0.0054
2022-11-05T06:17:40.547Z,0.0155
2022-11-05T06:22:59.650Z,0.0208
2022-11-05T06:28:18.927Z,0.0229
2022-11-05T06:33:37.953Z,0.0251
2022-11-05T06:44:17.553Z,0.0347
2022-11-05T06:49:36.153Z,0.0339
2022-11-05T06:54:55.269Z,0.0341
2022-11-05T07:00:14.336Z,0.0372
2022-11-05T07:05:33.688Z,0.0454
2022-11-05T07:10:52.845Z,0.0495
2022-11-05T07:16:11.812Z,0.0611
2022-11-05T07:26:51.531Z,0.0809
2022-11-05T07:37:29.005Z,0.0925
2022-11-05T07:42:48.429Z,0.1024
2022-11-05T07:48:33.050Z,0.1008
2022-11-05T07:59:11.194Z,0.0946
2022-11-05T08:04:30.472Z,0.1087
2022-11-05T08:09:49.962Z,0.1227
2022-11-05T08:15:09.693Z,0.1093
2022-11-05T08:20:28.050Z,0.0932
2022-11-05T08:25:47.573Z,0.0875
2022-11-05T08:31:05.722Z,0.0861
2022-11-05T08:36:25.317Z,0.1027
2022-11-05T08:41:44.669Z,0.1123
2022-11-05T08:52:23.367Z,0.1015
2022-11-05T08:58:57.539Z,0.0964
2022-11-05T09:03:00.478Z,0.0883
2022-11-05T09:08:20.168Z,0.1069
2022-11-05T09:13:40.291Z,0.1036
2022-11-05T09:18:59.986Z,0.1057
2022-11-05T09:24:18.422Z,0.1021
2022-11-05T09:34:57.436Z,0.116
2022-11-05T09:40:16.702Z,0.1267
2022-11-05T09:45:36.359Z,0.1243
2022-11-05T09:50:55.002Z,0.1239
2022-11-05T09:56:14.833Z,0.1414
2022-11-05T10:01:34.485Z,0.1484
2022-11-05T10:06:53.274Z,0.1726
2022-11-05T10:17:36.364Z,0.2263
2022-11-05T10:22:52.405Z,0.2413
2022-11-05T10:28:12.145Z,0.2894
2022-11-05T10:33:31.543Z,0.3189
2022-11-05T10:38:49.800Z,0.3549
2022-11-05T10:44:08.838Z,0.3741
2022-11-05T10:49:28.570Z,0.4385
2022-11-05T11:00:06.278Z,0.5703
2022-11-05T11:05:25.546Z,0.7228
2022-11-05T11:16:04.142Z,0.3822
2022-11-05T11:21:23.463Z,0.2281
2022-11-05T11:26:43.514Z,0.1991
2022-11-05T11:33:17.629Z,0.1822
2022-11-05T11:37:21.329Z,0.1656
2022-11-05T11:42:40.196Z,0.1497
2022-11-05T11:47:59.643Z,0.1028
2022-11-05T11:58:46.840Z,0.0969
2022-11-05T12:03:56.809Z,0.0932
2022-11-05T12:09:16.327Z,0.1021
2022-11-05T12:14:35.420Z,6.1919
2022-11-05T12:19:55.069Z,0
2022-11-05T12:25:13.517Z,6.2665
2022-11-05T12:30:32.931Z,0
2022-11-05T12:41:11.298Z,6.2665
2022-11-05T12:46:30.999Z,6.2777
2022-11-05T12:51:49.310Z,6.3038
2022-11-05T12:57:09.009Z,6.2106
2022-11-05T13:02:28.802Z,0
2022-11-05T13:07:48.378Z,6.3075
2022-11-05T13:13:07.516Z,6.2591
2022-11-05T13:18:36.427Z,6.2069
2022-11-05T13:23:46.335Z,6.4977
2022-11-05T13:29:05.609Z,6.3672
2022-11-05T13:39:44.168Z,0
2022-11-05T13:45:03.440Z,6.2106
2022-11-05T13:50:22.516Z,6.1658
2022-11-05T13:55:42.237Z,6.315
2022-11-05T14:01:01.717Z,6.3784
2022-11-05T14:06:21.079Z,6.3225
2022-11-05T14:11:40.996Z,6.2852
2022-11-05T14:16:59.394Z,6.2143
2022-11-05T14:22:18.418Z,6.2336
2022-11-05T14:27:37.167Z,6.4642
2022-11-05T14:32:56.883Z,0.0582
2022-11-05T14:38:15.869Z,0.0667
2022-11-05T14:43:35.571Z,0.1077
2022-11-05T14:48:54.776Z,0.1483
2022-11-05T14:54:13.719Z,0.1147
2022-11-05T15:04:52.046Z,0.056
2022-11-05T15:10:12.463Z,0.05
2022-11-05T15:15:31.253Z,0.041
2022-11-05T15:20:50.032Z,0.0357
2022-11-05T15:26:16.892Z,0.0368
2022-11-05T15:31:28.025Z,0.0341
2022-11-05T15:42:06.280Z,0.0299
2022-11-05T15:47:25.317Z,0.0307
2022-11-05T15:52:45.267Z,0.025
2022-11-05T15:58:03.233Z,0.0173
2022-11-05T16:03:22.902Z,0.0072
2022-11-05T16:08:42.726Z,0.0012
2022-11-05T16:14:01.761Z,0
2022-11-05T16:19:20.921Z,0
2022-11-05T16:24:41.320Z,0
2022-11-05T16:29:59.673Z,0
2022-11-05T16:40:39.224Z,0
2022-11-05T16:45:58.561Z,0
2022-11-05T16:51:20.112Z,0
2022-11-05T16:57:52.332Z,0
2022-11-05T17:07:15.963Z,0
2022-11-05T17:12:35.121Z,0
2022-11-05T17:23:14.106Z,0
2022-11-05T17:28:31.892Z,0
2022-11-05T17:33:51.334Z,0
2022-11-05T17:39:10.114Z,0
2022-11-05T17:44:29.449Z,0
2022-11-05T17:49:48.372Z,0
2022-11-05T17:55:08.289Z,0
2022-11-05T18:05:47.681Z,0
2022-11-05T18:11:06.473Z,0
2022-11-05T18:17:40.610Z,0
2022-11-05T18:21:44.454Z,0
2022-11-05T18:27:04.059Z,0
2022-11-05T18:32:23.558Z,0
2022-11-05T18:37:42.229Z,0
2022-11-05T18:43:01.268Z,0
2022-11-05T18:48:20.429Z,0
2022-11-05T18:53:39.484Z,0
2022-11-05T19:04:17.710Z,0
2022-11-05T19:09:37.476Z,0
2022-11-05T19:15:02.041Z,0
2022-11-05T19:20:16.210Z,0
2022-11-05T19:25:35.730Z,0
2022-11-05T19:30:56.125Z,0
2022-11-05T19:36:15.656Z,0
2022-11-05T19:48:33.941Z,0
2022-11-05T19:52:14.166Z,0
2022-11-05T19:57:33.067Z,0
2022-11-05T20:02:51.390Z,0
2022-11-05T20:08:11.224Z,0
2022-11-05T20:13:29.968Z,0
2022-11-05T20:18:49.056Z,0
2022-11-05T20:29:33.784Z,0
2022-11-05T20:34:46.516Z,0
2022-11-05T20:40:06.291Z,0
2022-11-05T20:45:24.782Z,0
2022-11-05T20:50:43.619Z,0
2022-11-05T20:56:06.645Z,0
2022-11-05T21:01:21.754Z,0
2022-11-05T21:12:00.035Z,0
2022-11-05T21:17:18.911Z,0
2022-11-05T21:22:37.837Z,0
2022-11-05T21:27:57.615Z,0
2022-11-05T21:33:17.364Z,0
2022-11-05T21:38:36.388Z,0
2022-11-05T21:43:55.833Z,0
2022-11-05T21:49:15.761Z,0
2022-11-05T21:54:35.186Z,0
2022-11-05T21:59:54.661Z,0
2022-11-05T22:10:32.969Z,0
2022-11-05T22:15:52.827Z,0
2022-11-05T22:21:11.401Z,0
2022-11-05T22:26:30.731Z,0
2022-11-05T22:31:50.061Z,0
2022-11-05T22:37:08.827Z,0
2022-11-05T22:47:48.375Z,0
2022-11-05T22:53:07.706Z,0
2022-11-05T22:58:27.336Z,0
2022-11-05T23:03:47.886Z,0
2022-11-05T23:09:06.944Z,0
2022-11-05T23:14:25.827Z,0
2022-11-05T23:19:44.844Z,0
2022-11-05T23:30:23.145Z,0
2022-11-05T23:35:42.818Z,0
2022-11-05T23:46:20.923Z,0
2022-11-05T23:51:40.009Z,0
2022-11-05T23:56:59.545Z,0
